Observation data for Brownfield on 09/24/2019      Previous  Date  Next       Current Mesonet Observations  Soil Data  Daily Summary Page  Observations in Plain Language
KBWS 240500Z 10006KT 20/19 A3005 RMK A01 T02030187  RH  096%=      5-min Rain = 0
KBWS 240505Z 11005KT 20/19 A3005 RMK A01 T02030187  RH  096%=      5-min Rain = 0
KBWS 240510Z 13004KT 20/19 A3005 RMK A01 T02030187  RH  096%=      5-min Rain = 0
KBWS 240515Z 13004KT 20/19 A3005 RMK A01 T02020187  RH  096%=      5-min Rain = 0
KBWS 240520Z 11006KT 20/19 A3005 RMK A01 T02020187  RH  096%=      5-min Rain = 0
KBWS 240525Z 11006KT 20/19 A3006 RMK A01 T02030188  RH  096%=      5-min Rain = 0
KBWS 240530Z 11005KT 20/19 A3006 RMK A01 T02030188  RH  096%=      5-min Rain = 0
KBWS 240535Z 12004KT 20/19 A3006 RMK A01 T02030188  RH  096%=      5-min Rain = 0
KBWS 240540Z 12005KT 20/19 A3005 RMK A01 T02020188  RH  096%=      5-min Rain = 0
KBWS 240545Z 12006KT 20/19 A3005 RMK A01 T02030188  RH  096%=      5-min Rain = 0
KBWS 240550Z 11007KT 20/19 A3005 RMK A01 T02030188  RH  096%=      5-min Rain = 0
KBWS 240555Z 11007KT 20/19 A3005 RMK A01 T02030189  RH  097%=      5-min Rain = 0
KBWS 240600Z 12007KT 20/19 A3005 RMK A01 T02020189  RH  097%=      5-min Rain = 0
KBWS 240605Z 12007KT 20/19 A3005 RMK A01 T02020189  RH  097%=      5-min Rain = 0
KBWS 240610Z 12007KT 20/19 A3005 RMK A01 T02020189  RH  097%=      5-min Rain = 0
KBWS 240615Z 12007KT 20/19 A3005 RMK A01 T02020190  RH  098%=      5-min Rain = 0
KBWS 240620Z 13007KT 20/19 A3004 RMK A01 T02020190  RH  098%=      5-min Rain = 0
KBWS 240625Z 13007KT 20/19 A3004 RMK A01 T02020190  RH  098%=      5-min Rain = 0
KBWS 240630Z 13007KT 20/19 A3004 RMK A01 T02020190  RH  098%=      5-min Rain = 0
KBWS 240635Z 13009KT 20/19 A3004 RMK A01 T02020191  RH  098%=      5-min Rain = 0
KBWS 240640Z 13010KT 20/19 A3004 RMK A01 T02030191  RH  098%=      5-min Rain = 0
KBWS 240645Z 13009KT 20/19 A3004 RMK A01 T02030192  RH  098%=      5-min Rain = 0
KBWS 240650Z 13009KT 20/19 A3004 RMK A01 T02040192  RH  098%=      5-min Rain = 0
KBWS 240655Z 13011KT 20/19 A3004 RMK A01 T02040192  RH  098%=      5-min Rain = 0
KBWS 240700Z 13011KT 20/19 A3004 RMK A01 T02040192  RH  098%=      5-min Rain = 0
KBWS 240705Z 13010KT 20/19 A3004 RMK A01 T02040192  RH  098%=      5-min Rain = 0
KBWS 240710Z 14011KT 20/19 A3004 RMK A01 T02040193  RH  098%=      5-min Rain = 0
KBWS 240715Z 14011KT 20/19 A3004 RMK A01 T02040193  RH  098%=      5-min Rain = 0
KBWS 240720Z 14010KT 20/19 A3004 RMK A01 T02040193  RH  098%=      5-min Rain = 0
KBWS 240725Z 14010KT 20/19 A3004 RMK A01 T02040193  RH  098%=      5-min Rain = 0
KBWS 240730Z 14009KT 21/19 A3004 RMK A01 T02050193  RH  098%=      5-min Rain = 0
KBWS 240735Z 14009KT 21/19 A3004 RMK A01 T02050193  RH  098%=      5-min Rain = 0
KBWS 240740Z 14010KT 21/19 A3004 RMK A01 T02060193  RH  098%=      5-min Rain = 0
KBWS 240745Z 14011KT 21/19 A3004 RMK A01 T02060193  RH  098%=      5-min Rain = 0
KBWS 240750Z 14010KT 21/19 A3004 RMK A01 T02060192  RH  097%=      5-min Rain = 0
KBWS 240755Z 14009KT 21/19 A3004 RMK A01 T02060192  RH  097%=      5-min Rain = 0
KBWS 240800Z 14009KT 21/19 A3004 RMK A01 T02060192  RH  097%=      5-min Rain = 0
KBWS 240805Z 14009KT 21/19 A3004 RMK A01 T02060192  RH  097%=      5-min Rain = 0
KBWS 240810Z 14008KT 21/19 A3004 RMK A01 T02060192  RH  097%=      5-min Rain = 0
KBWS 240815Z 14009KT 21/19 A3004 RMK A01 T02060192  RH  097%=      5-min Rain = 0
KBWS 240820Z 14009KT 21/19 A3004 RMK A01 T02060191  RH  097%=      5-min Rain = 0
KBWS 240825Z 14010KT 21/19 A3003 RMK A01 T02060191  RH  096%=      5-min Rain = 0
KBWS 240830Z 14010KT 21/19 A3003 RMK A01 T02060191  RH  096%=      5-min Rain = 0
KBWS 240835Z 15009KT 21/19 A3003 RMK A01 T02060191  RH  096%=      5-min Rain = 0
KBWS 240840Z 15009KT 21/19 A3003 RMK A01 T02060191  RH  096%=      5-min Rain = 0
KBWS 240845Z 15008KT 21/19 A3003 RMK A01 T02060191  RH  096%=      5-min Rain = 0
KBWS 240850Z 15008KT 21/19 A3003 RMK A01 T02060191  RH  097%=      5-min Rain = 0
KBWS 240855Z 15007KT 21/19 A3003 RMK A01 T02060191  RH  097%=      5-min Rain = 0
KBWS 240900Z 15008KT 21/19 A3003 RMK A01 T02050191  RH  097%=      5-min Rain = 0
KBWS 240905Z 15008KT 21/19 A3003 RMK A01 T02050191  RH  097%=      5-min Rain = 0
KBWS 240910Z 15008KT 21/19 A3003 RMK A01 T02050191  RH  097%=      5-min Rain = 0
KBWS 240915Z 16006KT 21/19 A3003 RMK A01 T02050191  RH  097%=      5-min Rain = 0
KBWS 240920Z 16006KT 21/19 A3003 RMK A01 T02050191  RH  097%=      5-min Rain = 0
KBWS 240925Z 16008KT 21/19 A3003 RMK A01 T02050190  RH  096%=      5-min Rain = 0
KBWS 240930Z 16007KT 21/19 A3003 RMK A01 T02050190  RH  096%=      5-min Rain = 0
KBWS 240935Z 16007KT 21/19 A3003 RMK A01 T02050190  RH  096%=      5-min Rain = 0
KBWS 240940Z 16005KT 21/19 A3003 RMK A01 T02050190  RH  096%=      5-min Rain = 0
KBWS 240945Z 16005KT 21/19 A3003 RMK A01 T02050190  RH  096%=      5-min Rain = 0
KBWS 240950Z 15006KT 20/19 A3002 RMK A01 T02040189  RH  096%=      5-min Rain = 0
KBWS 240955Z 16007KT 20/19 A3002 RMK A01 T02040188  RH  096%=      5-min Rain = 0
KBWS 241000Z 16007KT 20/19 A3002 RMK A01 T02040188  RH  096%=      5-min Rain = 0
KBWS 241005Z 16006KT 20/19 A3002 RMK A01 T02040189  RH  096%=      5-min Rain = 0
KBWS 241010Z 15007KT 20/19 A3002 RMK A01 T02030188  RH  096%=      5-min Rain = 0
KBWS 241015Z 16007KT 20/19 A3002 RMK A01 T02020187  RH  096%=      5-min Rain = 0
KBWS 241020Z 16007KT 20/19 A3002 RMK A01 T02020187  RH  096%=      5-min Rain = 0
KBWS 241025Z 16007KT 20/19 A3002 RMK A01 T02020187  RH  097%=      5-min Rain = 0
KBWS 241030Z 17008KT 20/19 A3001 RMK A01 T02010187  RH  096%=      5-min Rain = 0
KBWS 241035Z 17007KT 20/19 A3001 RMK A01 T02010186  RH  096%=      5-min Rain = 0
KBWS 241040Z 16007KT 20/19 A3002 RMK A01 T02010185  RH  096%=      5-min Rain = 0
KBWS 241045Z 16005KT 20/19 A3001 RMK A01 T02000185  RH  096%=      5-min Rain = 0
KBWS 241050Z 16005KT 20/18 A3001 RMK A01 T01990184  RH  096%=      5-min Rain = 0
KBWS 241055Z 16004KT 20/18 A3001 RMK A01 T01980184  RH  097%=      5-min Rain = 0
KBWS 241100Z 17005KT 20/18 A3001 RMK A01 T01980184  RH  097%=      5-min Rain = 0
KBWS 241105Z 18005KT 20/18 A3001 RMK A01 T01970184  RH  097%=      5-min Rain = 0
KBWS 241110Z 18006KT 20/18 A3001 RMK A01 T01960183  RH  097%=      5-min Rain = 0
KBWS 241115Z 17006KT 20/18 A3001 RMK A01 T01960184  RH  098%=      5-min Rain = 0
KBWS 241120Z 16005KT 20/18 A3001 RMK A01 T01960184  RH  098%=      5-min Rain = 0
KBWS 241125Z 16006KT 20/18 A3001 RMK A01 T01960183  RH  098%=      5-min Rain = 0
KBWS 241130Z 16006KT 20/18 A3001 RMK A01 T01960184  RH  098%=      5-min Rain = 0
KBWS 241135Z 16007KT 20/18 A3001 RMK A01 T01960184  RH  098%=      5-min Rain = 0
KBWS 241140Z 17008KT 20/18 A3001 RMK A01 T01960184  RH  098%=      5-min Rain = 0
KBWS 241145Z 16007KT 20/18 A3001 RMK A01 T01960184  RH  098%=      5-min Rain = 0
KBWS 241150Z 16008KT 20/18 A3001 RMK A01 T01950184  RH  098%=      5-min Rain = 0
KBWS 241155Z 16007KT 20/18 A3001 RMK A01 T01950183  RH  098%=      5-min Rain = 0
KBWS 241200Z 15007KT 20/18 A3001 RMK A01 T01950183  RH  098%=      5-min Rain = 0
KBWS 241205Z 15007KT 19/18 A3001 RMK A01 T01940182  RH  098%=      5-min Rain = 0
KBWS 241210Z 14006KT 19/18 A30 RMK A01 T01930181  RH  098%=      5-min Rain = 0
KBWS 241215Z 14007KT 19/18 A30 RMK A01 T01930181  RH  098%=      5-min Rain = 0
KBWS 241220Z 14007KT 19/18 A30 RMK A01 T01920181  RH  098%=      5-min Rain = 0
KBWS 241225Z 14007KT 19/18 A30 RMK A01 T01920182  RH  099%=      5-min Rain = 0
KBWS 241230Z 14007KT 19/18 A30 RMK A01 T01920182  RH  099%=      5-min Rain = 0
KBWS 241235Z 14007KT 19/18 A30 RMK A01 T01920182  RH  099%=      5-min Rain = 0
KBWS 241240Z 14008KT 19/18 A30 RMK A01 T01920182  RH  099%=      5-min Rain = 0
KBWS 241245Z 14007KT 19/18 A30 RMK A01 T01920182  RH  099%=      5-min Rain = 0
KBWS 241250Z 14008KT 19/18 A30 RMK A01 T01920182  RH  099%=      5-min Rain = 0
KBWS 241255Z 14008KT 19/18 A3001 RMK A01 T01910181  RH  099%=      5-min Rain = 0
KBWS 241300Z 14009KT 19/18 A30 RMK A01 T01910181  RH  099%=      5-min Rain = 0
KBWS 241305Z 15008KT 19/18 A30 RMK A01 T01910181  RH  099%=      5-min Rain = 0
KBWS 241310Z 16007KT 19/18 A30 RMK A01 T01910181  RH  099%=      5-min Rain = 0
KBWS 241315Z 16007KT 19/18 A30 RMK A01 T01910181  RH  099%=      5-min Rain = 0
KBWS 241320Z 15007KT 19/18 A3001 RMK A01 T01900181  RH  099%=      5-min Rain = 0
KBWS 241325Z 15007KT 19/18 A3001 RMK A01 T01910182  RH  100%=      5-min Rain = 0
KBWS 241330Z 15007KT 19/18 A3001 RMK A01 T01920183  RH  100%=      5-min Rain = 0
KBWS 241335Z 15007KT 19/18 A3001 RMK A01 T01910182  RH  100%=      5-min Rain = 0
KBWS 241340Z 15007KT 19/18 A3001 RMK A01 T01920183  RH  100%=      5-min Rain = 0
KBWS 241345Z 15006KT 19/18 A3001 RMK A01 T01930184  RH  100%=      5-min Rain = 0
KBWS 241350Z 16006KT 19/18 A3002 RMK A01 T01920183  RH  099%=      5-min Rain = 0
KBWS 241355Z 16005KT 19/18 A3002 RMK A01 T01920182  RH  099%=      5-min Rain = 0
KBWS 241400Z 18004KT 19/18 A3003 RMK A01 T01920182  RH  099%=      5-min Rain = 0
KBWS 241405Z 20005KT 20/19 A3003 RMK A01 T01960186  RH  099%=      5-min Rain = 0
KBWS 241410Z 17007KT 20/19 A3002 RMK A01 T01980187  RH  099%=      5-min Rain = 0
KBWS 241415Z 17006KT 20/19 A3002 RMK A01 T02000187  RH  098%=      5-min Rain = 0
KBWS 241420Z 19005KT 20/19 A3003 RMK A01 T02040188  RH  095%=      5-min Rain = 0
KBWS 241425Z 17007KT 21/19 A3002 RMK A01 T02060185  RH  093%=      5-min Rain = 0
KBWS 241430Z 19004KT 21/19 A3003 RMK A01 T02090186  RH  092%=      5-min Rain = 0
KBWS 241435Z 18005KT 21/19 A3003 RMK A01 T02110187  RH  091%=      5-min Rain = 0
KBWS 241440Z 16008KT 21/19 A3002 RMK A01 T02140186  RH  089%=      5-min Rain = 0
KBWS 241445Z 19006KT 22/19 A3003 RMK A01 T02150186  RH  088%=      5-min Rain = 0
KBWS 241450Z 18006KT 22/19 A3003 RMK A01 T02180186  RH  086%=      5-min Rain = 0
KBWS 241455Z 17007KT 22/19 A3003 RMK A01 T02190186  RH  086%=      5-min Rain = 0
KBWS 241500Z 17008KT 22/19 A3003 RMK A01 T02220187  RH  085%=      5-min Rain = 0
KBWS 241505Z 18006KT 22/19 A3003 RMK A01 T02220186  RH  084%=      5-min Rain = 0
KBWS 241510Z 19005KT 23/19 A3004 RMK A01 T02250186  RH  083%=      5-min Rain = 0
KBWS 241515Z 18007KT 23/18 A3003 RMK A01 T02260184  RH  082%=      5-min Rain = 0
KBWS 241520Z 18007KT 23/19 A3003 RMK A01 T02270185  RH  081%=      5-min Rain = 0
KBWS 241525Z 18006KT 23/19 A3003 RMK A01 T02300187  RH  081%=      5-min Rain = 0
KBWS 241530Z 18009KT 23/18 A3003 RMK A01 T02330184  RH  078%=      5-min Rain = 0
KBWS 241535Z 19007KT 23/18 A3003 RMK A01 T02330183  RH  078%=      5-min Rain = 0
KBWS 241540Z 19008KT 24/18 A3003 RMK A01 T02350183  RH  077%=      5-min Rain = 0
KBWS 241545Z 20008KT 24/18 A3003 RMK A01 T02360181  RH  076%=      5-min Rain = 0
KBWS 241550Z 20008KT 24/18 A3003 RMK A01 T02390183  RH  075%=      5-min Rain = 0
KBWS 241555Z 19008KT 24/18 A3003 RMK A01 T02400182  RH  074%=      5-min Rain = 0
KBWS 241600Z 18008KT 24/18 A3003 RMK A01 T02410183  RH  074%=      5-min Rain = 0
KBWS 241605Z 18008KT 24/18 A3003 RMK A01 T02410182  RH  073%=      5-min Rain = 0
KBWS 241610Z 18008KT 24/18 A3002 RMK A01 T02430182  RH  073%=      5-min Rain = 0
KBWS 241615Z 20007KT 25/18 A3002 RMK A01 T02450182  RH  072%=      5-min Rain = 0
KBWS 241620Z 19010KT 25/18 A3002 RMK A01 T02470183  RH  071%=      5-min Rain = 0
KBWS 241625Z 19009KT 25/18 A3002 RMK A01 T02490184  RH  071%=      5-min Rain = 0
KBWS 241630Z 19008KT 25/18 A3002 RMK A01 T02500184  RH  070%=      5-min Rain = 0
KBWS 241635Z 20008KT 25/19 A3002 RMK A01 T02510185  RH  070%=      5-min Rain = 0
KBWS 241640Z 20007KT 25/19 A3001 RMK A01 T02500185  RH  071%=      5-min Rain = 0
KBWS 241645Z 19008KT 25/19 A3001 RMK A01 T02540186  RH  070%=      5-min Rain = 0
KBWS 241650Z 18009KT 25/18 A3001 RMK A01 T02530184  RH  069%=      5-min Rain = 0
KBWS 241655Z 19007KT 25/19 A3001 RMK A01 T02540185  RH  069%=      5-min Rain = 0
KBWS 241700Z 17007KT 26/19 A3001 RMK A01 T02570186  RH  068%=      5-min Rain = 0
KBWS 241705Z 20007KT 26/19 A3001 RMK A01 T02610189  RH  068%=      5-min Rain = 0
KBWS 241710Z 20008KT 26/19 A30 RMK A01 T02620188  RH  067%=      5-min Rain = 0
KBWS 241715Z 19008KT 26/19 A30 RMK A01 T02620188  RH  067%=      5-min Rain = 0
KBWS 241720Z 19008KT 26/19 A30 RMK A01 T02630186  RH  066%=      5-min Rain = 0
KBWS 241725Z 18008KT 27/19 A30 RMK A01 T02650187  RH  066%=      5-min Rain = 0
KBWS 241730Z 17008KT 27/19 A30 RMK A01 T02660187  RH  066%=      5-min Rain = 0
KBWS 241735Z 18008G13KT 27/19 A30 RMK A01 T02690187  RH  064%=      5-min Rain = 0
KBWS 241740Z 17008G13KT 27/19 A30 RMK A01 T02710189  RH  064%=      5-min Rain = 0
KBWS 241745Z 17008KT 27/19 A30 RMK A01 T02720188  RH  064%=      5-min Rain = 0
KBWS 241750Z 17008KT 27/19 A2999 RMK A01 T02720188  RH  063%=      5-min Rain = 0
KBWS 241755Z 18008KT 27/19 A2999 RMK A01 T02730185  RH  062%=      5-min Rain = 0
KBWS 241800Z 18009KT 27/19 A2999 RMK A01 T02740185  RH  062%=      5-min Rain = 0
KBWS 241805Z 18008KT 28/19 A2999 RMK A01 T02760189  RH  062%=      5-min Rain = 0
KBWS 241810Z 19008KT 28/19 A2999 RMK A01 T02780188  RH  061%=      5-min Rain = 0
KBWS 241815Z 20009KT 28/19 A2999 RMK A01 T02800189  RH  061%=      5-min Rain = 0
KBWS 241820Z 18008KT 28/19 A2999 RMK A01 T02790189  RH  061%=      5-min Rain = 0
KBWS 241825Z 18006KT 28/19 A2999 RMK A01 T02840193  RH  061%=      5-min Rain = 0
KBWS 241830Z 18008KT 28/19 A2999 RMK A01 T02840189  RH  060%=      5-min Rain = 0
KBWS 241835Z 18007KT 28/19 A2998 RMK A01 T02840187  RH  059%=      5-min Rain = 0
KBWS 241840Z 20007KT 29/19 A2998 RMK A01 T02870190  RH  059%=      5-min Rain = 0
KBWS 241845Z 17007KT 29/19 A2998 RMK A01 T02870189  RH  059%=      5-min Rain = 0
KBWS 241850Z 20008KT 29/19 A2998 RMK A01 T02880186  RH  057%=      5-min Rain = 0
KBWS 241855Z 20007G13KT 29/19 A2998 RMK A01 T02870188  RH  058%=      5-min Rain = 0
KBWS 241900Z 19008KT 29/18 A2998 RMK A01 T02890184  RH  056%=      5-min Rain = 0
KBWS 241905Z 18005KT 29/18 A2997 RMK A01 T02900183  RH  055%=      5-min Rain = 0
KBWS 241910Z 18005KT 29/19 A2997 RMK A01 T02920188  RH  057%=      5-min Rain = 0
KBWS 241915Z 19007KT 29/19 A2997 RMK A01 T02940186  RH  055%=      5-min Rain = 0
KBWS 241920Z 20004KT 30/19 A2997 RMK A01 T02950187  RH  055%=      5-min Rain = 0
KBWS 241925Z 19007KT 30/19 A2996 RMK A01 T02970185  RH  054%=      5-min Rain = 0
KBWS 241930Z 22007KT 30/19 A2996 RMK A01 T02970185  RH  054%=      5-min Rain = 0
KBWS 241935Z 18006G11KT 30/18 A2996 RMK A01 T02990182  RH  052%=      5-min Rain = 0
KBWS 241940Z 16007KT 30/19 A2996 RMK A01 T02990187  RH  054%=      5-min Rain = 0
KBWS 241945Z 19007KT 30/18 A2996 RMK A01 T03030184  RH  052%=      5-min Rain = 0
KBWS 241950Z 18006KT 30/19 A2995 RMK A01 T03020185  RH  053%=      5-min Rain = 0
KBWS 241955Z 18006KT 30/19 A2995 RMK A01 T03000186  RH  054%=      5-min Rain = 0
KBWS 242000Z 20007KT 30/18 A2995 RMK A01 T03030183  RH  051%=      5-min Rain = 0
KBWS 242005Z 21006KT 31/18 A2995 RMK A01 T03060183  RH  050%=      5-min Rain = 0
KBWS 242010Z 17004KT 31/18 A2995 RMK A01 T03050176  RH  049%=      5-min Rain = 0
KBWS 242015Z 21004KT 31/18 A2995 RMK A01 T03050176  RH  048%=      5-min Rain = 0
KBWS 242020Z 20006KT 31/18 A2994 RMK A01 T03080180  RH  049%=      5-min Rain = 0
KBWS 242025Z 19005KT 31/18 A2994 RMK A01 T03050175  RH  048%=      5-min Rain = 0
KBWS 242030Z 18004KT 31/18 A2994 RMK A01 T03060177  RH  048%=      5-min Rain = 0
KBWS 242035Z 16006KT 31/18 A2993 RMK A01 T03080175  RH  047%=      5-min Rain = 0
KBWS 242040Z 19009KT 31/18 A2993 RMK A01 T03080179  RH  049%=      5-min Rain = 0
KBWS 242045Z 19005KT 31/18 A2993 RMK A01 T03110181  RH  048%=      5-min Rain = 0
KBWS 242050Z 18007KT 31/17 A2993 RMK A01 T03080174  RH  047%=      5-min Rain = 0
KBWS 242055Z 18005KT 31/17 A2992 RMK A01 T03070169  RH  046%=      5-min Rain = 0
KBWS 242100Z 17007KT 31/17 A2992 RMK A01 T03090173  RH  046%=      5-min Rain = 0
KBWS 242105Z 17007KT 31/17 A2992 RMK A01 T03080171  RH  046%=      5-min Rain = 0
KBWS 242110Z 15007KT 30/17 A2992 RMK A01 T03040167  RH  046%=      5-min Rain = 0
KBWS 242115Z 17005KT 30/17 A2991 RMK A01 T02980166  RH  047%=      5-min Rain = 0
KBWS 242120Z 18004KT 30/17 A2991 RMK A01 T02960172  RH  050%=      5-min Rain = 0
KBWS 242125Z 18005KT 30/18 A2991 RMK A01 T02970175  RH  050%=      5-min Rain = 0
KBWS 242130Z 18006KT 30/18 A2991 RMK A01 T03000178  RH  051%=      5-min Rain = 0
KBWS 242135Z 17005KT 31/17 A2991 RMK A01 T03080173  RH  047%=      5-min Rain = 0
KBWS 242140Z 17006KT 31/17 A299 RMK A01 T03110172  RH  046%=      5-min Rain = 0
KBWS 242145Z 15006KT 31/18 A299 RMK A01 T03110175  RH  046%=      5-min Rain = 0
KBWS 242150Z 17008G13KT 31/18 A2991 RMK A01 T03060177  RH  048%=      5-min Rain = 0
KBWS 242155Z 16008KT 31/18 A2991 RMK A01 T03100175  RH  047%=      5-min Rain = 0
KBWS 242200Z 15007KT 31/18 A2991 RMK A01 T03060175  RH  048%=      5-min Rain = 0
KBWS 242205Z 15007KT 30/18 A2991 RMK A01 T03020176  RH  049%=      5-min Rain = 0
KBWS 242210Z 18009KT 30/17 A2991 RMK A01 T02990173  RH  049%=      5-min Rain = 0
KBWS 242215Z 17007KT 30/17 A2991 RMK A01 T02970171  RH  049%=      5-min Rain = 0
KBWS 242220Z 18008KT 30/18 A2991 RMK A01 T02970175  RH  050%=      5-min Rain = 0
KBWS 242225Z 20007KT 29/18 A2991 RMK A01 T02930184  RH  055%=      5-min Rain = 0
KBWS 242230Z 20009KT 29/19 A2991 RMK A01 T02880190  RH  059%=      5-min Rain = 0
KBWS 242235Z 23008KT 27/20 A2991 RMK A01 T02740196  RH  066%=      5-min Rain = 0
KBWS 242240Z 28009KT 27/20 A2991 RMK A01 T02660197  RH  070%=      5-min Rain = 0
KBWS 242245Z 28008KT 26/20 A299 RMK A01 T02590200  RH  074%=      5-min Rain = 0.01
KBWS 242250Z 29006KT 26/21 A299 RMK A01 T02630206  RH  075%=      5-min Rain = 0
KBWS 242255Z 26004KT 27/21 A299 RMK A01 T02680209  RH  074%=      5-min Rain = 0
KBWS 242300Z 23005KT 27/20 A2989 RMK A01 T02740198  RH  067%=      5-min Rain = 0.01
KBWS 242305Z 21005KT 28/20 A2989 RMK A01 T02780201  RH  067%=      5-min Rain = 0
KBWS 242310Z 19006KT 28/20 A2989 RMK A01 T02810200  RH  065%=      5-min Rain = 0
KBWS 242315Z 17005KT 28/19 A2989 RMK A01 T02840193  RH  061%=      5-min Rain = 0
KBWS 242320Z 16005KT 28/19 A2989 RMK A01 T02840191  RH  060%=      5-min Rain = 0
KBWS 242325Z 17006KT 28/20 A2989 RMK A01 T02810198  RH  064%=      5-min Rain = 0
KBWS 242330Z 17005KT 28/20 A299 RMK A01 T02810201  RH  066%=      5-min Rain = 0
KBWS 242335Z 17005KT 28/21 A299 RMK A01 T02820205  RH  067%=      5-min Rain = 0
KBWS 242340Z 17005KT 28/21 A299 RMK A01 T02830209  RH  068%=      5-min Rain = 0
KBWS 242345Z 17007KT 28/21 A299 RMK A01 T02840206  RH  066%=      5-min Rain = 0
KBWS 242350Z 17008KT 28/20 A299 RMK A01 T02830201  RH  065%=      5-min Rain = 0
KBWS 242355Z 17008KT 28/20 A299 RMK A01 T02820196  RH  063%=      5-min Rain = 0
KBWS 250000Z 17007KT 28/20 A2991 RMK A01 T02800199  RH  065%=      5-min Rain = 0
KBWS 250005Z 17006KT 28/20 A299 RMK A01 T02750202  RH  068%=      5-min Rain = 0
KBWS 250010Z 17006KT 27/20 A299 RMK A01 T02720202  RH  070%=      5-min Rain = 0
KBWS 250015Z 18006KT 27/20 A299 RMK A01 T02680203  RH  071%=      5-min Rain = 0
KBWS 250020Z 17006KT 27/20 A299 RMK A01 T02650204  RH  073%=      5-min Rain = 0
KBWS 250025Z 17006KT 26/20 A299 RMK A01 T02640203  RH  073%=      5-min Rain = 0
KBWS 250030Z 17005KT 26/20 A299 RMK A01 T02620203  RH  074%=      5-min Rain = 0
KBWS 250035Z 17004KT 26/20 A299 RMK A01 T02600203  RH  075%=      5-min Rain = 0
KBWS 250040Z 18004KT 26/20 A299 RMK A01 T02600201  RH  074%=      5-min Rain = 0
KBWS 250045Z 17004KT 26/21 A299 RMK A01 T02600206  RH  076%=      5-min Rain = 0
KBWS 250050Z 16004KT 26/21 A299 RMK A01 T02580208  RH  079%=      5-min Rain = 0
KBWS 250055Z 15004KT 26/21 A299 RMK A01 T02570206  RH  078%=      5-min Rain = 0
KBWS 250100Z 15003KT 26/21 A2991 RMK A01 T02550207  RH  079%=      5-min Rain = 0
KBWS 250105Z 17004KT 26/20 A2991 RMK A01 T02550204  RH  078%=      5-min Rain = 0
KBWS 250110Z 17004KT 26/20 A2991 RMK A01 T02560203  RH  077%=      5-min Rain = 0
KBWS 250115Z 17006KT 26/20 A2991 RMK A01 T02590201  RH  074%=      5-min Rain = 0
KBWS 250120Z 17006KT 26/20 A2991 RMK A01 T02600199  RH  073%=      5-min Rain = 0
KBWS 250125Z 17007KT 26/20 A2992 RMK A01 T02580199  RH  074%=      5-min Rain = 0
KBWS 250130Z 17007KT 26/20 A2992 RMK A01 T02550198  RH  075%=      5-min Rain = 0
KBWS 250135Z 17007KT 25/20 A2992 RMK A01 T02530197  RH  075%=      5-min Rain = 0
KBWS 250140Z 16006KT 25/20 A2992 RMK A01 T02510197  RH  076%=      5-min Rain = 0
KBWS 250145Z 16007KT 25/20 A2992 RMK A01 T02490198  RH  077%=      5-min Rain = 0
KBWS 250150Z 16007KT 25/20 A2992 RMK A01 T02480197  RH  077%=      5-min Rain = 0
KBWS 250155Z 16006KT 25/20 A2992 RMK A01 T02480195  RH  077%=      5-min Rain = 0
KBWS 250200Z 16007KT 25/19 A2992 RMK A01 T02490194  RH  076%=      5-min Rain = 0
KBWS 250205Z 16007KT 25/19 A2992 RMK A01 T02490193  RH  075%=      5-min Rain = 0
KBWS 250210Z 16007KT 25/19 A2992 RMK A01 T02490192  RH  075%=      5-min Rain = 0
KBWS 250215Z 16008KT 25/19 A2992 RMK A01 T02510190  RH  073%=      5-min Rain = 0
KBWS 250220Z 16008KT 25/19 A2992 RMK A01 T02510189  RH  072%=      5-min Rain = 0
KBWS 250225Z 16009KT 25/19 A2992 RMK A01 T02510189  RH  072%=      5-min Rain = 0
KBWS 250230Z 16008KT 25/19 A2992 RMK A01 T02490190  RH  074%=      5-min Rain = 0
KBWS 250235Z 17008KT 25/19 A2993 RMK A01 T02470190  RH  075%=      5-min Rain = 0
KBWS 250240Z 17009KT 25/19 A2993 RMK A01 T02460189  RH  075%=      5-min Rain = 0
KBWS 250245Z 17009KT 25/19 A2993 RMK A01 T02470189  RH  074%=      5-min Rain = 0
KBWS 250250Z 18010KT 25/19 A2993 RMK A01 T02470189  RH  074%=      5-min Rain = 0
KBWS 250255Z 17010KT 25/19 A2993 RMK A01 T02480187  RH  073%=      5-min Rain = 0
KBWS 250300Z 17009KT 25/19 A2993 RMK A01 T02470188  RH  074%=      5-min Rain = 0
KBWS 250305Z 18009KT 25/19 A2993 RMK A01 T02450189  RH  075%=      5-min Rain = 0
KBWS 250310Z 18008KT 24/19 A2994 RMK A01 T02440189  RH  076%=      5-min Rain = 0
KBWS 250315Z 18009KT 24/19 A2994 RMK A01 T02440189  RH  076%=      5-min Rain = 0
KBWS 250320Z 18009KT 24/19 A2994 RMK A01 T02430189  RH  076%=      5-min Rain = 0
KBWS 250325Z 18009KT 24/19 A2994 RMK A01 T02430190  RH  076%=      5-min Rain = 0
KBWS 250330Z 19010KT 24/19 A2994 RMK A01 T02440188  RH  075%=      5-min Rain = 0
KBWS 250335Z 19009KT 25/19 A2994 RMK A01 T02450186  RH  074%=      5-min Rain = 0
KBWS 250340Z 19010KT 25/19 A2995 RMK A01 T02460186  RH  073%=      5-min Rain = 0
KBWS 250345Z 19010G15KT 25/18 A2994 RMK A01 T02480184  RH  071%=      5-min Rain = 0
KBWS 250350Z 19010KT 25/18 A2994 RMK A01 T02480184  RH  072%=      5-min Rain = 0
KBWS 250355Z 19010KT 25/18 A2994 RMK A01 T02470183  RH  071%=      5-min Rain = 0
KBWS 250400Z 19011KT 25/18 A2994 RMK A01 T02470183  RH  071%=      5-min Rain = 0
KBWS 250405Z 19011KT 25/18 A2994 RMK A01 T02470182  RH  071%=      5-min Rain = 0
KBWS 250410Z 20009KT 24/18 A2995 RMK A01 T02440183  RH  072%=      5-min Rain = 0
KBWS 250415Z 20009KT 24/18 A2995 RMK A01 T02430182  RH  073%=      5-min Rain = 0
KBWS 250420Z 20009KT 24/18 A2995 RMK A01 T02400181  RH  073%=      5-min Rain = 0
KBWS 250425Z 20009KT 24/18 A2995 RMK A01 T02400181  RH  073%=      5-min Rain = 0
KBWS 250430Z 20007KT 24/18 A2995 RMK A01 T02390181  RH  074%=      5-min Rain = 0
KBWS 250435Z 20006KT 24/18 A2995 RMK A01 T02360182  RH  075%=      5-min Rain = 0
KBWS 250440Z 20007KT 23/18 A2995 RMK A01 T02340182  RH  076%=      5-min Rain = 0
KBWS 250445Z 20007KT 23/18 A2995 RMK A01 T02330181  RH  077%=      5-min Rain = 0
KBWS 250450Z 20007KT 23/18 A2995 RMK A01 T02330181  RH  077%=      5-min Rain = 0
KBWS 250455Z 21007KT 23/18 A2995 RMK A01 T02310181  RH  077%=      5-min Rain = 0

Page generated in 0.0091 seconds.